Time;durP1;ratioP1;P1;durP2;ratioP2;P2;SDS_P1;SDS_P2;PMS_P1;PMS_P2;Temp;Humidity;BMP_temperature;BMP_pressure;BME280_temperature;BME280_humidity;BME280_pressure;Samples;Min_cycle;Max_cycle;Signal;HPM_P1;HPM_P2
2021/11/03 00:00:31;;;;;;;34.28;17.02;;;;;;;5.05;80.80;97425.94;5051201;28;20017;-65
2021/11/03 00:02:56;;;;;;;36.88;16.73;;;;;;;5.10;80.72;97428.63;5051115;28;20505;-64
2021/11/03 00:05:23;;;;;;;35.28;17.13;;;;;;;5.15;80.56;97438.63;5051619;28;20071;-62
2021/11/03 00:07:49;;;;;;;32.80;16.60;;;;;;;5.21;80.65;97445.63;5052929;28;20021;-64
2021/11/03 00:10:16;;;;;;;35.08;16.90;;;;;;;5.27;80.26;97438.28;5052912;28;20425;-63
2021/11/03 00:12:41;;;;;;;37.03;18.48;;;;;;;5.34;81.60;97442.25;5051896;28;20049;-64
2021/11/03 00:15:08;;;;;;;32.22;16.35;;;;;;;5.38;80.88;97439.78;5052374;28;20063;-64
2021/11/03 00:17:34;;;;;;;31.90;16.58;;;;;;;5.45;80.56;97439.44;5051174;28;20040;-63
2021/11/03 00:19:59;;;;;;;35.50;16.40;;;;;;;5.48;81.45;97434.22;5051186;28;20033;-65
2021/11/03 00:22:25;;;;;;;43.85;21.10;;;;;;;5.54;80.75;97434.19;5049814;28;20378;-65
2021/11/03 00:24:50;;;;;;;47.58;20.48;;;;;;;5.59;81.18;97445.00;5050888;28;20029;-64
2021/11/03 00:27:16;;;;;;;67.38;27.10;;;;;;;5.63;81.18;97444.13;5050933;28;20174;-64
2021/11/03 00:29:41;;;;;;;48.65;22.10;;;;;;;5.68;80.31;97445.19;5050733;28;20033;-63
2021/11/03 00:32:09;;;;;;;50.40;23.35;;;;;;;5.71;80.19;97448.13;5050667;28;20013;-66
2021/11/03 00:34:36;;;;;;;55.40;25.95;;;;;;;5.73;80.20;97451.38;5049775;28;20154;-63
2021/11/03 00:37:01;;;;;;;52.50;26.23;;;;;;;5.72;80.41;97435.34;5050776;28;20036;-64
2021/11/03 00:39:27;;;;;;;58.90;25.75;;;;;;;5.71;79.95;97439.16;5050580;28;20033;-64
2021/11/03 00:41:53;;;;;;;45.00;21.30;;;;;;;5.69;80.08;97454.97;5050384;28;20532;-64
2021/11/03 00:44:22;;;;;;;60.65;28.73;;;;;;;5.68;79.97;97461.50;5050590;28;20033;-63
2021/11/03 00:46:48;;;;;;;43.35;22.15;;;;;;;5.68;80.66;97469.66;5049553;28;20028;-64
2021/11/03 00:49:15;;;;;;;44.85;22.50;;;;;;;5.69;80.34;97474.84;5048998;28;20552;-63
2021/11/03 00:51:40;;;;;;;47.72;22.77;;;;;;;5.70;80.05;97471.00;5050140;28;20112;-63
2021/11/03 00:54:06;;;;;;;53.20;24.95;;;;;;;5.71;79.88;97467.16;5048161;28;20490;-63
2021/11/03 00:56:32;;;;;;;49.15;23.25;;;;;;;5.73;80.34;97475.84;5050355;28;20017;-63
2021/11/03 00:58:57;;;;;;;53.88;24.60;;;;;;;5.74;80.42;97471.22;5050046;28;20400;-64
2021/11/03 01:01:23;;;;;;;47.95;23.98;;;;;;;5.75;80.05;97476.38;5048750;28;20503;-65
2021/11/03 01:03:48;;;;;;;49.50;22.50;;;;;;;5.76;80.72;97479.91;5050001;28;20025;-64
2021/11/03 01:06:15;;;;;;;50.03;24.98;;;;;;;5.76;80.40;97469.03;5048655;28;20032;-64
2021/11/03 01:08:41;;;;;;;46.92;24.10;;;;;;;5.75;79.92;97479.09;5050193;28;20096;-65
2021/11/03 01:11:06;;;;;;;49.25;25.85;;;;;;;5.74;80.09;97474.75;5046228;28;20377;-64
2021/11/03 01:13:34;;;;;;;42.75;21.45;;;;;;;5.75;81.21;97470.94;5049951;28;20032;-64
2021/11/03 01:16:00;;;;;;;51.42;26.55;;;;;;;5.75;80.51;97481.81;5048722;28;20040;-65
2021/11/03 01:18:28;;;;;;;48.85;24.50;;;;;;;5.76;80.60;97474.47;5048584;28;20634;-65
2021/11/03 01:20:54;;;;;;;49.83;23.25;;;;;;;5.78;80.40;97480.44;5048314;28;20017;-64
2021/11/03 01:23:20;;;;;;;45.28;22.58;;;;;;;5.82;80.68;97485.00;5049551;28;20675;-65
2021/11/03 01:25:46;;;;;;;41.85;21.70;;;;;;;5.85;81.10;97486.34;5049214;28;20118;-65
2021/11/03 01:28:11;;;;;;;49.92;25.02;;;;;;;5.87;81.02;97475.16;5049751;28;20064;-64
2021/11/03 01:30:37;;;;;;;48.47;24.45;;;;;;;5.88;81.04;97479.50;5047164;28;20024;-65
2021/11/03 01:33:03;;;;;;;50.10;25.65;;;;;;;5.91;80.74;97474.28;5049146;28;20550;-64
2021/11/03 01:35:29;;;;;;;41.63;22.27;;;;;;;5.93;81.32;97477.53;5049817;28;20040;-65
2021/11/03 01:37:56;;;;;;;42.90;23.63;;;;;;;5.96;80.81;97478.88;5049745;28;20032;-65
2021/11/03 01:40:25;;;;;;;46.72;23.92;;;;;;;6.00;81.11;97466.34;5049548;28;20025;-64
2021/11/03 01:42:51;;;;;;;39.33;22.45;;;;;;;6.04;80.83;97464.66;5049862;28;20017;-65
2021/11/03 01:45:19;;;;;;;36.83;21.25;;;;;;;6.09;81.01;97459.16;5049439;28;20036;-65
2021/11/03 01:47:51;;;;;;;36.20;20.05;;;;;;;6.15;80.79;97470.78;5049363;28;20381;-65
2021/11/03 01:50:26;;;;;;;39.22;21.63;;;;;;;6.20;80.81;97476.16;5049219;28;20040;-66
2021/11/03 01:53:06;;;;;;;40.42;22.23;;;;;;;6.25;81.10;97475.28;5048710;28;20025;-64
2021/11/03 01:55:33;;;;;;;32.55;19.05;;;;;;;6.30;80.90;97469.78;5048544;28;20036;-65
2021/11/03 01:58:06;;;;;;;32.20;19.55;;;;;;;6.35;81.16;97461.53;5048843;28;20056;-64
2021/11/03 02:00:37;;;;;;;35.30;20.55;;;;;;;6.39;80.67;97464.47;5047779;28;20023;-63
2021/11/03 02:03:07;;;;;;;37.55;21.33;;;;;;;6.42;80.45;97461.16;5048892;28;20071;-64
2021/11/03 02:05:34;;;;;;;37.38;21.15;;;;;;;6.47;80.52;97455.66;5048880;28;20055;-64
2021/11/03 02:08:01;;;;;;;34.30;22.00;;;;;;;6.52;80.77;97465.69;5046994;28;20017;-64
2021/11/03 02:10:28;;;;;;;36.47;22.13;;;;;;;6.55;80.23;97463.16;5047672;28;20036;-64
2021/11/03 02:12:53;;;;;;;32.60;20.95;;;;;;;6.57;80.29;97457.41;5048735;28;20025;-64
2021/11/03 02:15:19;;;;;;;36.38;20.67;;;;;;;6.60;80.50;97453.31;5048696;28;20025;-64
2021/11/03 02:17:45;;;;;;;33.88;20.08;;;;;;;6.61;80.04;97463.09;5048954;28;20332;-64
2021/11/03 02:20:14;;;;;;;30.83;19.15;;;;;;;6.62;80.29;97459.28;5048536;28;20027;-65
2021/11/03 02:23:14;;;;;;;31.85;19.38;;;;;;;6.63;80.14;97460.91;5048424;28;20036;-64
2021/11/03 02:25:56;;;;;;;31.90;18.55;;;;;;;6.62;80.16;97465.50;5046256;28;20037;-65
2021/11/03 02:28:24;;;;;;;26.30;16.58;;;;;;;6.63;80.06;97464.41;5048859;28;20027;-64
2021/11/03 02:30:49;;;;;;;25.00;15.15;;;;;;;6.66;80.16;97460.31;5047930;28;20028;-64
2021/11/03 02:33:21;;;;;;;29.23;17.75;;;;;;;6.65;79.82;97456.75;5047142;28;20045;-65
2021/11/03 02:35:55;;;;;;;27.85;16.77;;;;;;;6.66;79.79;97461.09;5048393;28;20037;-65
2021/11/03 02:38:33;;;;;;;26.75;16.60;;;;;;;6.68;80.09;97464.34;5048394;28;20025;-65
2021/11/03 02:41:16;;;;;;;27.23;16.02;;;;;;;6.66;80.27;97457.56;5047330;28;20021;-64
2021/11/03 02:43:46;;;;;;;29.02;17.15;;;;;;;6.64;79.70;97467.97;5047641;28;20063;-65
2021/11/03 02:46:15;;;;;;;25.92;14.88;;;;;;;6.60;79.96;97454.09;5047506;28;20037;-64
2021/11/03 02:48:41;;;;;;;27.92;15.80;;;;;;;6.57;79.52;97451.97;5046654;28;20114;-64
2021/11/03 02:51:18;;;;;;;27.20;16.77;;;;;;;6.53;80.02;97449.03;5048014;28;20432;-65
2021/11/03 02:53:56;;;;;;;26.15;15.35;;;;;;;6.51;79.59;97445.00;5048305;28;20029;-64
2021/11/03 02:56:26;;;;;;;27.80;15.32;;;;;;;6.49;80.17;97455.38;5048446;28;20028;-64
2021/11/03 02:58:52;;;;;;;;;;;;;;;6.48;79.89;97454.53;5047668;28;20464;-64
2021/11/03 03:01:29;;;;;;;25.50;15.05;;;;;;;6.47;80.09;97461.09;5048548;28;19970;-64
2021/11/03 03:03:54;;;;;;;23.08;13.85;;;;;;;6.44;79.78;97456.25;5049614;28;20021;-65
2021/11/03 03:06:24;;;;;;;25.48;14.35;;;;;;;6.43;80.51;97451.91;5049566;28;20029;-65
2021/11/03 03:08:51;;;;;;;21.25;13.40;;;;;;;6.41;80.38;97451.38;5049366;28;20059;-65
2021/11/03 03:11:17;;;;;;;24.52;13.73;;;;;;;6.37;80.48;97461.22;5048547;28;20033;-65
2021/11/03 03:13:42;;;;;;;21.30;13.85;;;;;;;6.33;80.12;97443.84;5048976;28;20492;-64
2021/11/03 03:16:08;;;;;;;21.27;13.57;;;;;;;6.29;80.10;97454.53;5048686;28;20029;-65
2021/11/03 03:18:35;;;;;;;19.83;13.07;;;;;;;6.29;80.43;97453.75;5048707;28;20053;-64
2021/11/03 03:21:01;;;;;;;18.65;12.07;;;;;;;6.25;80.31;97459.78;5042429;28;20064;-65
2021/11/03 03:23:26;;;;;;;20.73;12.55;;;;;;;6.23;80.56;97459.25;5046096;28;20102;-64
2021/11/03 03:25:52;;;;;;;20.98;12.68;;;;;;;6.19;80.48;97449.22;5047006;28;20028;-64
2021/11/03 03:28:18;;;;;;;17.67;12.35;;;;;;;6.16;80.46;97458.78;5047829;28;20035;-65
2021/11/03 03:30:44;;;;;;;18.65;12.48;;;;;;;6.13;80.49;97469.44;5047412;28;20024;-65
2021/11/03 03:33:10;;;;;;;20.48;12.60;;;;;;;6.10;80.14;97465.41;5046595;28;20052;-65
2021/11/03 03:35:36;;;;;;;19.25;11.95;;;;;;;6.06;80.51;97470.63;5047600;28;20032;-65
2021/11/03 03:38:02;;;;;;;18.23;11.10;;;;;;;6.03;80.55;97475.81;5047186;28;20028;-65
2021/11/03 03:40:27;;;;;;;18.50;12.35;;;;;;;5.99;80.34;97480.19;5047913;28;20013;-65
2021/11/03 03:42:53;;;;;;;19.60;12.32;;;;;;;5.95;80.33;97488.94;5047229;28;20056;-66
2021/11/03 03:45:18;;;;;;;18.10;11.68;;;;;;;5.92;80.59;97486.00;5047253;28;20032;-64
2021/11/03 03:47:44;;;;;;;17.60;12.00;;;;;;;5.90;80.47;97496.34;5048956;28;20025;-65
2021/11/03 03:50:10;;;;;;;18.80;12.75;;;;;;;5.88;80.28;97499.38;5047616;28;20024;-65
2021/11/03 03:52:36;;;;;;;14.80;10.02;;;;;;;5.84;80.12;97501.06;5047885;28;20029;-66
2021/11/03 03:55:04;;;;;;;15.38;10.35;;;;;;;5.80;80.90;97505.47;5047304;28;20028;-66
2021/11/03 03:57:30;;;;;;;19.02;10.85;;;;;;;5.77;80.47;97512.28;5051146;28;20025;-65
2021/11/03 03:59:55;;;;;;;15.93;10.98;;;;;;;5.75;80.90;97503.59;5052243;28;20536;-66
2021/11/03 04:02:20;;;;;;;16.35;10.30;;;;;;;5.75;80.14;97506.31;5051905;28;20025;-66
2021/11/03 04:04:46;;;;;;;14.93;9.75;;;;;;;5.75;80.77;97516.38;5052284;28;20036;-65
2021/11/03 04:07:11;;;;;;;16.80;11.18;;;;;;;5.73;80.44;97510.41;5052182;28;20039;-66
2021/11/03 04:09:37;;;;;;;16.15;10.93;;;;;;;5.73;80.87;97504.97;5051282;28;20075;-65
2021/11/03 04:12:03;;;;;;;17.13;10.25;;;;;;;5.70;80.84;97500.94;5050228;28;20100;-64
2021/11/03 04:14:29;;;;;;;15.57;10.00;;;;;;;5.69;80.96;97496.59;5050716;28;20043;-64
2021/11/03 04:16:54;;;;;;;16.33;10.57;;;;;;;5.64;80.65;97500.16;5051012;28;20481;-64
2021/11/03 04:19:20;;;;;;;18.85;12.35;;;;;;;5.63;80.50;97511.34;5052172;28;20027;-65
2021/11/03 04:21:45;;;;;;;16.13;9.93;;;;;;;5.59;80.65;97497.50;5050329;28;20029;-64
2021/11/03 04:24:11;;;;;;;17.05;11.07;;;;;;;5.58;81.66;97505.94;5051439;28;20055;-64
2021/11/03 04:26:42;;;;;;;17.33;10.32;;;;;;;5.54;81.31;97504.91;5052041;28;20063;-64
2021/11/03 04:29:08;;;;;;;17.77;11.85;;;;;;;5.51;81.32;97503.53;5051879;28;20106;-64
2021/11/03 04:31:33;;;;;;;18.10;12.13;;;;;;;5.48;81.34;97504.94;5051439;28;20448;-65
2021/11/03 04:33:59;;;;;;;21.42;12.52;;;;;;;5.45;81.00;97510.94;5051431;28;20443;-64
2021/11/03 04:36:24;;;;;;;18.30;10.77;;;;;;;5.43;80.82;97517.78;5051420;28;20021;-64
2021/11/03 04:38:52;;;;;;;20.35;12.90;;;;;;;5.41;81.10;97519.97;5050983;28;20033;-65
2021/11/03 04:41:18;;;;;;;20.80;13.85;;;;;;;5.40;81.56;97531.94;5051319;28;20029;-65
2021/11/03 04:43:46;;;;;;;19.52;13.35;;;;;;;5.36;81.52;97516.19;5051547;28;20424;-66
2021/11/03 04:46:12;;;;;;;21.88;12.45;;;;;;;5.35;81.67;97520.03;5050086;28;20094;-65
2021/11/03 04:48:38;;;;;;;25.90;15.40;;;;;;;5.34;81.58;97512.97;5051239;28;20039;-65
2021/11/03 04:51:03;;;;;;;21.70;12.65;;;;;;;5.33;81.61;97514.06;5049500;28;20021;-65
2021/11/03 04:53:29;;;;;;;20.77;13.27;;;;;;;5.34;81.61;97514.84;5051640;28;20021;-65
2021/11/03 04:55:56;;;;;;;21.77;12.93;;;;;;;5.29;81.30;97513.00;5033735;28;20417;-65
2021/11/03 04:58:21;;;;;;;22.88;13.15;;;;;;;5.27;81.21;97515.19;5051534;28;20033;-66
2021/11/03 05:00:48;;;;;;;22.45;13.07;;;;;;;5.25;81.27;97514.66;5050795;28;20021;-65
2021/11/03 05:03:13;;;;;;;20.17;12.35;;;;;;;5.24;81.57;97515.75;5050838;28;20086;-65
2021/11/03 05:05:39;;;;;;;19.77;12.35;;;;;;;5.25;81.75;97513.88;5051104;28;20029;-65
2021/11/03 05:08:05;;;;;;;18.33;11.85;;;;;;;5.25;81.76;97511.16;5050951;28;20029;-64
2021/11/03 05:10:31;;;;;;;18.52;11.57;;;;;;;5.25;81.69;97514.66;5051166;28;20037;-65
2021/11/03 05:12:57;;;;;;;20.83;12.15;;;;;;;5.22;81.38;97516.06;5049447;28;20488;-65
2021/11/03 05:15:23;;;;;;;25.02;13.57;;;;;;;5.23;81.49;97516.84;5050925;28;20025;-65
2021/11/03 05:17:48;;;;;;;25.27;14.88;;;;;;;5.22;81.67;97517.94;5051094;28;20029;-63
2021/11/03 05:20:16;;;;;;;25.02;14.70;;;;;;;5.21;81.32;97519.03;5051378;28;20018;-64
2021/11/03 05:22:42;;;;;;;27.05;19.38;;;;;;;5.19;81.12;97532.94;5049675;28;20047;-64
2021/11/03 05:25:07;;;;;;;23.60;14.25;;;;;;;5.19;81.25;97526.66;5050915;28;20544;-64
2021/11/03 05:27:33;;;;;;;28.02;17.15;;;;;;;5.18;81.52;97523.16;5050380;28;20370;-65
2021/11/03 05:29:59;;;;;;;23.63;14.98;;;;;;;5.16;81.16;97532.66;5050645;28;20370;-64
2021/11/03 05:32:25;;;;;;;22.58;13.70;;;;;;;5.14;81.23;97526.69;5050125;28;20045;-65
2021/11/03 05:34:50;;;;;;;23.73;12.95;;;;;;;5.12;81.36;97528.88;5049934;28;20035;-65
2021/11/03 05:37:17;;;;;;;26.20;15.55;;;;;;;5.11;81.58;97532.69;5050667;28;20032;-65
2021/11/03 05:39:43;;;;;;;24.58;13.77;;;;;;;5.09;81.36;97535.72;5050423;28;20017;-66
2021/11/03 05:42:10;;;;;;;22.67;13.80;;;;;;;5.07;81.61;97536.00;5048853;28;20074;-66
2021/11/03 05:44:35;;;;;;;28.48;15.15;;;;;;;5.06;81.62;97539.00;5049735;28;20037;-66
2021/11/03 05:47:01;;;;;;;21.33;13.10;;;;;;;5.04;81.25;97543.91;5050307;28;20025;-66
2021/11/03 05:49:31;;;;;;;23.50;14.73;;;;;;;5.05;81.81;97546.34;5048978;28;20036;-65
2021/11/03 05:51:58;;;;;;;22.20;14.48;;;;;;;5.04;81.58;97543.91;5048521;28;20048;-66
2021/11/03 05:54:27;;;;;;;22.15;13.77;;;;;;;5.06;81.81;97558.03;5049092;28;20024;-66
2021/11/03 05:56:55;;;;;;;24.77;15.55;;;;;;;5.06;81.26;97558.03;5050302;28;20033;-65
2021/11/03 05:59:21;;;;;;;24.73;13.52;;;;;;;5.09;81.74;97551.22;5051228;28;20029;-66
2021/11/03 06:01:47;;;;;;;22.83;13.30;;;;;;;5.11;81.73;97566.16;5051172;28;20033;-66
2021/11/03 06:04:12;;;;;;;16.67;11.23;;;;;;;5.11;81.29;97568.88;5049867;28;20036;-67
2021/11/03 06:06:37;;;;;;;19.45;11.73;;;;;;;5.15;81.26;97566.38;5051783;28;20151;-65
2021/11/03 06:09:05;;;;;;;16.95;10.57;;;;;;;5.17;81.92;97565.03;5050233;28;20040;-65
2021/11/03 06:11:32;;;;;;;21.52;12.23;;;;;;;5.19;81.61;97567.44;5051191;28;20033;-66
2021/11/03 06:13:57;;;;;;;19.85;12.93;;;;;;;5.21;81.04;97574.22;5050993;28;20028;-66
2021/11/03 06:16:23;;;;;;;24.40;14.77;;;;;;;5.22;81.38;97573.13;5051270;28;20393;-64
2021/11/03 06:18:51;;;;;;;23.50;14.88;;;;;;;5.24;81.06;97570.13;5049815;28;20027;-64
2021/11/03 06:21:16;;;;;;;21.73;15.13;;;;;;;5.27;81.33;97577.72;5050140;28;20036;-64
2021/11/03 06:23:42;;;;;;;20.48;11.68;;;;;;;5.30;81.35;97584.50;5051034;28;20021;-65
2021/11/03 06:26:07;;;;;;;21.38;13.30;;;;;;;5.34;81.59;97591.81;5051337;28;20067;-65
2021/11/03 06:28:33;;;;;;;20.63;12.93;;;;;;;5.36;80.91;97596.94;5051476;28;20100;-65
2021/11/03 06:30:59;;;;;;;22.13;13.35;;;;;;;5.40;81.38;97599.94;5050778;28;20021;-65
2021/11/03 06:33:24;;;;;;;23.75;13.73;;;;;;;5.45;81.11;97608.06;5050978;28;20040;-65
2021/11/03 06:35:51;;;;;;;26.40;17.05;;;;;;;5.47;81.04;97614.03;5050798;28;20037;-66
2021/11/03 06:38:17;;;;;;;26.15;17.35;;;;;;;5.51;80.67;97612.34;5051025;28;20111;-65
2021/11/03 06:40:43;;;;;;;22.52;15.88;;;;;;;5.55;80.87;97609.88;5050800;28;20029;-67
2021/11/03 06:43:10;;;;;;;23.10;15.57;;;;;;;5.58;81.11;97617.47;5050535;28;20032;-64
2021/11/03 06:45:36;;;;;;;25.77;15.88;;;;;;;5.63;80.91;97620.94;5050745;28;20043;-65
2021/11/03 06:48:01;;;;;;;24.40;15.45;;;;;;;5.68;80.65;97622.00;5051356;28;20851;-65
2021/11/03 06:50:34;;;;;;;23.83;15.52;;;;;;;5.73;80.42;97621.97;5050762;28;20028;-65
2021/11/03 06:53:00;;;;;;;26.23;15.68;;;;;;;5.80;80.90;97617.03;5050622;28;20021;-65
2021/11/03 06:55:27;;;;;;;26.85;15.55;;;;;;;5.88;80.99;97621.84;5050528;28;20033;-65
2021/11/03 06:57:56;;;;;;;32.33;17.98;;;;;;;5.95;80.79;97627.75;5050799;28;20039;-65
2021/11/03 07:00:26;;;;;;;29.83;17.63;;;;;;;6.02;80.46;97626.63;5052342;28;20063;-65
2021/11/03 07:02:55;;;;;;;29.70;17.52;;;;;;;6.05;80.58;97629.63;5050258;28;20502;-66
2021/11/03 07:05:21;;;;;;;26.60;15.80;;;;;;;6.10;80.45;97623.28;5049964;28;20029;-65
2021/11/03 07:07:46;;;;;;;26.70;15.38;;;;;;;6.16;80.49;97637.66;5050600;28;20477;-65
2021/11/03 07:10:19;;;;;;;25.52;15.80;;;;;;;6.22;80.19;97640.06;5052927;28;20112;-65
2021/11/03 07:12:45;;;;;;;22.67;14.75;;;;;;;6.29;79.88;97625.31;5049960;28;20032;-66
2021/11/03 07:15:10;;;;;;;23.05;13.73;;;;;;;6.30;79.66;97633.16;5050306;28;20028;-65
2021/11/03 07:17:36;;;;;;;23.17;14.43;;;;;;;6.29;79.56;97623.38;5051111;28;20165;-65
2021/11/03 07:20:02;;;;;;;21.65;14.02;;;;;;;6.33;79.88;97629.88;5050085;28;20103;-66
2021/11/03 07:22:27;;;;;;;23.23;13.32;;;;;;;6.38;79.98;97637.16;5050628;28;20067;-67
2021/11/03 07:24:54;;;;;;;26.98;16.38;;;;;;;6.43;80.04;97636.31;5049584;28;20435;-66
2021/11/03 07:27:20;;;;;;;28.55;16.90;;;;;;;6.46;79.41;97636.53;5049847;28;20029;-66
2021/11/03 07:29:46;;;;;;;29.42;17.65;;;;;;;6.52;79.69;97640.03;5050272;28;20396;-65
2021/11/03 07:32:11;;;;;;;23.63;14.25;;;;;;;6.54;79.72;97641.34;5052080;28;20032;-67
2021/11/03 07:34:37;;;;;;;26.35;16.13;;;;;;;6.59;79.05;97648.66;5053150;28;20028;-64
2021/11/03 07:37:03;;;;;;;31.23;17.00;;;;;;;6.66;79.35;97648.31;5052039;28;20029;-65
2021/11/03 07:39:29;;;;;;;34.03;17.75;;;;;;;6.72;79.21;97647.16;5054063;28;20112;-65
2021/11/03 07:41:54;;;;;;;27.40;15.85;;;;;;;6.80;79.23;97646.47;5054264;28;20109;-65
2021/11/03 07:44:19;;;;;;;28.70;16.27;;;;;;;6.89;79.17;97652.13;5052616;28;20075;-65
2021/11/03 07:46:45;;;;;;;29.95;18.27;;;;;;;6.95;78.89;97650.94;5054405;28;20082;-65
2021/11/03 07:49:10;;;;;;;24.83;13.95;;;;;;;7.02;79.13;97658.78;5053717;28;20664;-67
2021/11/03 07:51:36;;;;;;;27.92;16.20;;;;;;;7.08;79.07;97660.34;5052050;28;20025;-67
2021/11/03 07:54:02;;;;;;;24.65;15.32;;;;;;;7.12;78.88;97657.81;5054432;28;20028;-66
2021/11/03 07:56:31;;;;;;;23.17;15.30;;;;;;;7.13;78.68;97660.25;5052184;28;20068;-67
2021/11/03 07:58:56;;;;;;;24.10;15.40;;;;;;;7.16;78.39;97653.41;5053324;28;20025;-66
2021/11/03 08:01:23;;;;;;;25.45;14.70;;;;;;;7.22;78.57;97665.03;5052848;28;20033;-68
2021/11/03 08:03:50;;;;;;;25.90;14.63;;;;;;;7.27;78.35;97656.78;5052926;28;20066;-67
2021/11/03 08:06:16;;;;;;;24.85;14.70;;;;;;;7.34;78.40;97659.97;5052405;28;20077;-66
2021/11/03 08:08:46;;;;;;;27.30;15.57;;;;;;;7.38;78.33;97658.28;5052858;28;20464;-65
2021/11/03 08:11:13;;;;;;;25.38;14.77;;;;;;;7.43;78.21;97654.66;5052479;28;20028;-67
2021/11/03 08:13:39;;;;;;;27.20;14.43;;;;;;;7.47;78.30;97654.88;5049197;28;20040;-67
2021/11/03 08:16:05;;;;;;;25.27;13.95;;;;;;;7.54;77.96;97658.84;5040907;28;20041;-67
2021/11/03 08:18:37;;;;;;;24.65;13.95;;;;;;;7.59;78.28;97655.22;5052246;28;20036;-68
2021/11/03 08:21:04;;;;;;;23.75;13.85;;;;;;;7.65;77.54;97650.53;5052712;28;20029;-68
2021/11/03 08:23:30;;;;;;;21.15;12.23;;;;;;;7.72;77.76;97657.22;5052998;28;20025;-68
2021/11/03 08:25:55;;;;;;;21.45;12.48;;;;;;;7.79;77.69;97656.03;5050027;28;20094;-67
2021/11/03 08:28:21;;;;;;;20.38;12.02;;;;;;;7.85;77.59;97652.13;5052385;28;20032;-67
2021/11/03 08:30:49;;;;;;;20.83;11.25;;;;;;;7.90;77.24;97650.09;5051706;28;20040;-66
2021/11/03 08:33:20;;;;;;;19.63;11.85;;;;;;;7.95;76.94;97651.13;5052254;28;20068;-67
2021/11/03 08:35:49;;;;;;;21.00;12.07;;;;;;;7.99;76.84;97649.44;5055181;28;20472;-67
2021/11/03 08:38:17;;;;;;;21.60;13.80;;;;;;;8.04;76.62;97654.81;5046177;28;20032;-66
2021/11/03 08:40:44;;;;;;;19.55;11.48;;;;;;;8.08;76.52;97650.38;5051510;28;20032;-67
2021/11/03 08:43:13;;;;;;;23.58;11.90;;;;;;;8.14;76.58;97648.34;5050869;28;20033;-66
2021/11/03 08:45:39;;;;;;;29.02;16.67;;;;;;;8.20;76.68;97652.63;5050091;28;20043;-66
2021/11/03 08:48:07;;;;;;;18.58;11.18;;;;;;;8.28;76.51;97643.72;5047846;28;20029;-66
2021/11/03 08:50:35;;;;;;;17.17;9.43;;;;;;;8.34;76.11;97648.00;5050892;28;20107;-67
2021/11/03 08:53:00;;;;;;;15.57;9.50;;;;;;;8.42;76.12;97648.38;5049701;28;20028;-66
2021/11/03 08:55:29;;;;;;;15.02;9.40;;;;;;;8.49;75.39;97654.28;5050873;28;20029;-66
2021/11/03 08:57:56;;;;;;;17.92;10.32;;;;;;;8.56;75.91;97662.13;5049571;28;20107;-66
2021/11/03 09:00:25;;;;;;;15.60;9.80;;;;;;;8.63;75.47;97649.66;5051474;28;20485;-65
2021/11/03 09:02:54;;;;;;;19.77;9.53;;;;;;;8.72;75.42;97640.75;5051738;28;20028;-65
2021/11/03 09:05:20;;;;;;;24.27;13.13;;;;;;;8.81;75.13;97649.84;5049464;28;20313;-66
2021/11/03 09:07:46;;;;;;;17.17;9.52;;;;;;;8.89;74.57;97651.06;5051123;28;20032;-67
2021/11/03 09:10:13;;;;;;;18.45;10.77;;;;;;;8.94;74.51;97645.50;5046723;28;20024;-67
2021/11/03 09:12:39;;;;;;;11.85;7.10;;;;;;;9.01;73.83;97653.28;5050383;28;20025;-67
2021/11/03 09:15:07;;;;;;;12.32;7.38;;;;;;;9.06;73.16;97653.19;5051779;28;20029;-66
2021/11/03 09:17:32;;;;;;;11.77;6.07;;;;;;;9.12;72.58;97657.44;5051421;28;20020;-66
2021/11/03 09:19:58;;;;;;;13.70;6.22;;;;;;;9.19;72.65;97660.53;5050780;28;20548;-65
2021/11/03 09:22:24;;;;;;;11.18;5.72;;;;;;;9.23;72.77;97658.81;5051413;28;20028;-66
2021/11/03 09:24:49;;;;;;;10.10;5.70;;;;;;;9.31;71.22;97656.47;5050175;28;20028;-68
2021/11/03 09:27:15;;;;;;;55.90;32.38;;;;;;;9.36;72.17;97654.44;5051074;28;20031;-66
2021/11/03 09:29:50;;;;;;;15.85;9.40;;;;;;;9.44;71.56;97652.91;5050879;28;20025;-66
2021/11/03 09:32:21;;;;;;;24.08;15.90;;;;;;;9.53;71.76;97661.16;5050636;28;20104;-67
2021/11/03 09:34:49;;;;;;;14.60;9.82;;;;;;;9.57;71.15;97648.50;5050209;28;20508;-66
2021/11/03 09:37:18;;;;;;;9.77;4.85;;;;;;;9.64;69.89;97654.34;5051018;28;20422;-68
2021/11/03 09:39:47;;;;;;;10.48;5.50;;;;;;;9.70;70.07;97646.81;5049950;28;20032;-68
2021/11/03 09:42:14;;;;;;;8.18;4.80;;;;;;;9.74;69.04;97644.28;5051166;28;20111;-67
2021/11/03 09:44:43;;;;;;;8.85;4.53;;;;;;;9.80;68.84;97651.22;5049651;28;20033;-67
2021/11/03 09:47:17;;;;;;;8.13;4.28;;;;;;;9.84;68.79;97649.50;5048820;28;20049;-66
2021/11/03 09:49:52;;;;;;;12.98;5.55;;;;;;;9.89;68.59;97643.09;5049342;28;20028;-67
2021/11/03 09:52:20;;;;;;;8.38;4.10;;;;;;;9.94;67.54;97634.75;5050012;28;20083;-66
2021/11/03 09:54:53;;;;;;;10.07;5.10;;;;;;;9.99;69.00;97637.34;5049979;28;20194;-67
2021/11/03 09:57:28;;;;;;;8.63;6.45;;;;;;;10.05;68.52;97636.09;5050892;28;20036;-67
2021/11/03 10:00:30;;;;;;;8.18;5.25;;;;;;;10.12;68.31;97638.41;5051009;28;20021;-66
2021/11/03 10:03:33;;;;;;;6.18;4.07;;;;;;;10.18;67.60;97639.91;5049592;28;20374;-68
2021/11/03 10:06:23;;;;;;;7.53;4.00;;;;;;;10.23;68.25;97633.47;5048452;28;20070;-67
2021/11/03 10:08:51;;;;;;;4.85;3.17;;;;;;;10.31;67.77;97634.63;5048907;28;20040;-66
2021/11/03 10:11:17;;;;;;;10.15;4.35;;;;;;;10.37;67.95;97636.09;5048510;28;20029;-67
2021/11/03 10:13:44;;;;;;;4.88;3.05;;;;;;;10.43;68.78;97626.66;5049419;28;20025;-66
2021/11/03 10:16:13;;;;;;;5.32;2.97;;;;;;;10.51;67.63;97622.31;5049688;28;20028;-65
2021/11/03 10:19:02;;;;;;;5.93;3.80;;;;;;;10.59;68.10;97616.06;5049432;28;20071;-66
2021/11/03 10:21:30;;;;;;;8.57;4.00;;;;;;;10.69;67.71;97614.97;5047133;28;20025;-67
2021/11/03 10:24:14;;;;;;;6.70;3.45;;;;;;;10.79;68.21;97614.69;5050145;28;20536;-67
2021/11/03 10:26:59;;;;;;;5.07;3.05;;;;;;;10.86;67.66;97606.81;5049777;28;20021;-66
2021/11/03 10:29:28;;;;;;;6.95;3.35;;;;;;;10.93;66.64;97608.28;5050712;28;20507;-66
2021/11/03 10:31:56;;;;;;;5.68;3.55;;;;;;;11.00;66.53;97600.38;5049933;28;20408;-69
2021/11/03 10:34:29;;;;;;;8.80;5.75;;;;;;;11.13;65.27;97601.38;5050383;28;20037;-67
2021/11/03 10:37:18;;;;;;;7.85;4.32;;;;;;;11.22;66.03;97595.88;5049673;28;20028;-67
2021/11/03 10:39:57;;;;;;;5.03;3.33;;;;;;;11.27;63.80;97602.00;5049880;28;20430;-66
2021/11/03 10:42:40;;;;;;;5.43;3.10;;;;;;;11.33;64.82;97594.44;5049994;28;20032;-65
2021/11/03 10:45:15;;;;;;;3.53;2.72;;;;;;;11.40;64.89;97591.22;5049345;28;20543;-66
2021/11/03 10:47:45;;;;;;;4.90;2.65;;;;;;;11.47;63.53;97586.03;5049719;28;20025;-68
2021/11/03 10:50:28;;;;;;;5.35;2.92;;;;;;;11.55;64.00;97587.16;5049778;28;20025;-67
2021/11/03 10:53:02;;;;;;;4.70;3.10;;;;;;;11.60;63.79;97578.75;5048137;28;20455;-67
2021/11/03 10:55:40;;;;;;;6.80;3.47;;;;;;;11.67;63.41;97573.59;5048287;28;20465;-66
2021/11/03 10:58:27;;;;;;;6.18;2.88;;;;;;;11.76;62.74;97579.06;5049571;28;20105;-66
2021/11/03 11:01:06;;;;;;;4.95;2.70;;;;;;;11.81;62.69;97569.84;5048620;28;20048;-66
2021/11/03 11:03:36;;;;;;;4.63;2.47;;;;;;;11.88;63.20;97561.91;5049895;28;20024;-66
2021/11/03 11:06:20;;;;;;;4.60;2.45;;;;;;;11.99;61.97;97559.63;5049289;28;20102;-67
2021/11/03 11:08:55;;;;;;;4.30;2.88;;;;;;;12.05;62.07;97555.56;5053332;28;20067;-68
2021/11/03 11:11:23;;;;;;;6.72;2.95;;;;;;;12.13;60.27;97552.00;5053625;28;20021;-66
2021/11/03 11:14:01;;;;;;;7.60;4.32;;;;;;;12.20;62.08;97549.56;5052243;28;20040;-66
2021/11/03 11:17:12;;;;;;;3.20;1.60;;;;;;;12.32;61.79;97546.09;5051764;28;20033;-67
2021/11/03 11:20:02;;;;;;;3.35;2.22;;;;;;;12.47;60.65;97547.47;5044931;28;20034;-66
2021/11/03 11:22:33;;;;;;;2.70;2.05;;;;;;;12.50;58.71;97541.31;5049239;28;20037;-66
2021/11/03 11:24:58;;;;;;;4.90;1.88;;;;;;;12.54;58.74;97538.72;5051697;28;20033;-65
2021/11/03 11:27:29;;;;;;;1.90;1.30;;;;;;;12.59;57.46;97532.22;5052670;28;20025;-66
2021/11/03 11:30:04;;;;;;;3.55;1.52;;;;;;;12.64;57.99;97532.03;5053748;28;20021;-65
2021/11/03 11:32:53;;;;;;;3.60;2.20;;;;;;;12.75;58.73;97532.44;5053590;28;20045;-66